KROA/ROA METAR and TAF weather

Enter ICAO airport designator
Station Type Date Time Source
KROA METAR 2020/01/20 09:54 UTC NOAA

KROA 200954Z 34013KT 10SM CLR M06/M13 A3026 RMK AO2 SLP259 T10561128


Station Type Date Time Source
KROA Decoded METAR 2020/01/20 09:54 UTC NOAA

ROANOKE REGIONAL AIRPORT, VA, United States (KROA) 37-19N 079-58W 362M
Jan 20, 2020 - 04:54 AM EST / 2020.01.20 0954 UTC
Wind: from the NNW (340 degrees) at 15 MPH (13 KT):0
Visibility: 10 mile(s):0
Sky conditions: clear
Temperature: 21.9 F (-5.6 C)
Windchill: 8 F (-13 C):1
Dew Point: 9.0 F (-12.8 C)
Relative Humidity: 56%
Pressure (altimeter): 30.26 in. Hg (1024 hPa)
ob: KROA 200954Z 34013KT 10SM CLR M06/M13 A3026 RMK AO2 SLP259 T10561128
cycle: 10

Station Type Date Time Source
KROA TAF 2020/01/20 06:42 UTC NOAA

TAF KROA 200539Z 2006/2106 32010KT P6SM BKN040
FM201500 33010KT P6SM SKC
FM210200 VRB03KT P6SM SKC

Example: see airport list